sensor_id;sensor_type;location;lat;lon;timestamp;temperature;humidity
43524;DHT22;29120;52.006;6.020;2023-04-25T00:00:43;7.90;99.90
43524;DHT22;29120;52.006;6.020;2023-04-25T00:03:08;7.80;99.90
43524;DHT22;29120;52.006;6.020;2023-04-25T00:05:34;7.80;99.90
43524;DHT22;29120;52.006;6.020;2023-04-25T00:08:02;7.80;99.90
43524;DHT22;29120;52.006;6.020;2023-04-25T00:10:28;7.70;99.90
43524;DHT22;29120;52.006;6.020;2023-04-25T00:12:53;7.70;99.90
43524;DHT22;29120;52.006;6.020;2023-04-25T00:15:19;7.60;99.90
43524;DHT22;29120;52.006;6.020;2023-04-25T00:17:44;7.60;99.90
43524;DHT22;29120;52.006;6.020;2023-04-25T00:20:10;7.50;99.90
43524;DHT22;29120;52.006;6.020;2023-04-25T00:22:36;7.50;99.90
43524;DHT22;29120;52.006;6.020;2023-04-25T00:25:05;7.40;99.90
43524;DHT22;29120;52.006;6.020;2023-04-25T00:27:31;7.40;99.90
43524;DHT22;29120;52.006;6.020;2023-04-25T00:29:56;7.40;99.90
43524;DHT22;29120;52.006;6.020;2023-04-25T00:32:22;7.30;99.90
43524;DHT22;29120;52.006;6.020;2023-04-25T00:34:47;7.30;99.90
43524;DHT22;29120;52.006;6.020;2023-04-25T00:37:13;7.30;99.90
43524;DHT22;29120;52.006;6.020;2023-04-25T00:39:38;7.20;99.90
43524;DHT22;29120;52.006;6.020;2023-04-25T00:42:04;7.20;99.90
43524;DHT22;29120;52.006;6.020;2023-04-25T00:44:30;7.10;99.90
43524;DHT22;29120;52.006;6.020;2023-04-25T00:46:57;7.10;99.90
43524;DHT22;29120;52.006;6.020;2023-04-25T00:49:22;7.00;99.90
43524;DHT22;29120;52.006;6.020;2023-04-25T00:51:48;7.00;99.90
43524;DHT22;29120;52.006;6.020;2023-04-25T00:54:13;7.00;99.90
43524;DHT22;29120;52.006;6.020;2023-04-25T00:56:39;7.00;99.90
43524;DHT22;29120;52.006;6.020;2023-04-25T00:59:05;6.90;99.90
43524;DHT22;29120;52.006;6.020;2023-04-25T01:01:31;7.00;99.90
43524;DHT22;29120;52.006;6.020;2023-04-25T01:03:56;7.00;99.90
43524;DHT22;29120;52.006;6.020;2023-04-25T01:06:23;7.00;99.90
43524;DHT22;29120;52.006;6.020;2023-04-25T01:08:48;7.30;99.90
43524;DHT22;29120;52.006;6.020;2023-04-25T01:11:13;7.10;99.90
43524;DHT22;29120;52.006;6.020;2023-04-25T01:13:40;7.10;99.90
43524;DHT22;29120;52.006;6.020;2023-04-25T01:16:05;7.10;99.90
43524;DHT22;29120;52.006;6.020;2023-04-25T01:18:31;7.10;99.90
43524;DHT22;29120;52.006;6.020;2023-04-25T01:23:23;7.10;99.90
43524;DHT22;29120;52.006;6.020;2023-04-25T01:25:49;7.10;99.90
43524;DHT22;29120;52.006;6.020;2023-04-25T01:28:14;7.10;99.90
43524;DHT22;29120;52.006;6.020;2023-04-25T01:30:40;7.10;99.90
43524;DHT22;29120;52.006;6.020;2023-04-25T01:33:06;7.10;99.90
43524;DHT22;29120;52.006;6.020;2023-04-25T01:35:32;7.10;99.90
43524;DHT22;29120;52.006;6.020;2023-04-25T01:37:58;7.10;99.90
43524;DHT22;29120;52.006;6.020;2023-04-25T01:40:24;7.10;99.90
43524;DHT22;29120;52.006;6.020;2023-04-25T01:42:50;7.10;99.90
43524;DHT22;29120;52.006;6.020;2023-04-25T01:45:16;7.20;99.90
43524;DHT22;29120;52.006;6.020;2023-04-25T01:47:41;7.20;99.90
43524;DHT22;29120;52.006;6.020;2023-04-25T01:50:09;7.20;99.90
43524;DHT22;29120;52.006;6.020;2023-04-25T01:52:34;7.30;99.90
43524;DHT22;29120;52.006;6.020;2023-04-25T01:55:01;7.20;99.90
43524;DHT22;29120;52.006;6.020;2023-04-25T01:57:26;7.30;99.90
43524;DHT22;29120;52.006;6.020;2023-04-25T01:59:53;7.30;99.90
43524;DHT22;29120;52.006;6.020;2023-04-25T02:02:21;7.30;99.90
43524;DHT22;29120;52.006;6.020;2023-04-25T02:04:46;7.30;99.90
43524;DHT22;29120;52.006;6.020;2023-04-25T02:07:12;8.20;99.90
43524;DHT22;29120;52.006;6.020;2023-04-25T02:09:37;7.30;99.90
43524;DHT22;29120;52.006;6.020;2023-04-25T02:12:03;7.30;99.90
43524;DHT22;29120;52.006;6.020;2023-04-25T02:14:28;7.30;99.90
43524;DHT22;29120;52.006;6.020;2023-04-25T02:16:54;7.30;99.90
43524;DHT22;29120;52.006;6.020;2023-04-25T02:19:19;7.30;99.90
43524;DHT22;29120;52.006;6.020;2023-04-25T02:21:44;7.30;99.90
43524;DHT22;29120;52.006;6.020;2023-04-25T02:24:10;7.30;99.90
43524;DHT22;29120;52.006;6.020;2023-04-25T02:26:36;7.30;99.90
43524;DHT22;29120;52.006;6.020;2023-04-25T02:29:01;7.20;99.90
43524;DHT22;29120;52.006;6.020;2023-04-25T02:31:27;7.20;99.90
43524;DHT22;29120;52.006;6.020;2023-04-25T02:33:52;7.20;99.90
43524;DHT22;29120;52.006;6.020;2023-04-25T02:36:18;7.20;99.90
43524;DHT22;29120;52.006;6.020;2023-04-25T02:38:43;7.20;99.90
43524;DHT22;29120;52.006;6.020;2023-04-25T02:41:09;7.20;99.90
43524;DHT22;29120;52.006;6.020;2023-04-25T02:43:34;7.20;99.90
43524;DHT22;29120;52.006;6.020;2023-04-25T02:46:00;7.20;99.90
43524;DHT22;29120;52.006;6.020;2023-04-25T02:48:25;7.20;99.90
43524;DHT22;29120;52.006;6.020;2023-04-25T02:50:51;7.10;99.90
43524;DHT22;29120;52.006;6.020;2023-04-25T02:53:16;7.10;99.90
43524;DHT22;29120;52.006;6.020;2023-04-25T02:55:42;7.00;99.90
43524;DHT22;29120;52.006;6.020;2023-04-25T02:58:07;7.00;99.90
43524;DHT22;29120;52.006;6.020;2023-04-25T03:00:33;7.00;99.90
43524;DHT22;29120;52.006;6.020;2023-04-25T03:02:58;6.90;99.90
43524;DHT22;29120;52.006;6.020;2023-04-25T03:05:24;6.90;99.90
43524;DHT22;29120;52.006;6.020;2023-04-25T03:07:49;6.80;99.90
43524;DHT22;29120;52.006;6.020;2023-04-25T03:10:15;6.70;99.90
43524;DHT22;29120;52.006;6.020;2023-04-25T03:12:40;6.60;99.90
43524;DHT22;29120;52.006;6.020;2023-04-25T03:15:06;6.60;99.90
43524;DHT22;29120;52.006;6.020;2023-04-25T03:17:31;6.50;99.90
43524;DHT22;29120;52.006;6.020;2023-04-25T03:19:57;6.50;99.90
43524;DHT22;29120;52.006;6.020;2023-04-25T03:22:22;6.50;99.90
43524;DHT22;29120;52.006;6.020;2023-04-25T03:24:48;6.40;99.90
43524;DHT22;29120;52.006;6.020;2023-04-25T03:27:13;6.40;99.90
43524;DHT22;29120;52.006;6.020;2023-04-25T03:29:39;6.30;99.90
43524;DHT22;29120;52.006;6.020;2023-04-25T03:32:05;6.30;99.90
43524;DHT22;29120;52.006;6.020;2023-04-25T03:34:31;6.30;99.90
43524;DHT22;29120;52.006;6.020;2023-04-25T03:36:56;6.40;99.90
43524;DHT22;29120;52.006;6.020;2023-04-25T03:39:22;6.40;99.90
43524;DHT22;29120;52.006;6.020;2023-04-25T03:41:47;6.40;99.90
43524;DHT22;29120;52.006;6.020;2023-04-25T03:44:13;6.30;99.90
43524;DHT22;29120;52.006;6.020;2023-04-25T03:46:39;6.30;99.90
43524;DHT22;29120;52.006;6.020;2023-04-25T03:49:04;6.20;99.90
43524;DHT22;29120;52.006;6.020;2023-04-25T03:51:30;6.10;99.90
43524;DHT22;29120;52.006;6.020;2023-04-25T03:53:56;6.10;99.90
43524;DHT22;29120;52.006;6.020;2023-04-25T03:56:21;6.00;99.90
43524;DHT22;29120;52.006;6.020;2023-04-25T03:58:47;6.00;99.90
43524;DHT22;29120;52.006;6.020;2023-04-25T04:01:12;6.00;99.90
43524;DHT22;29120;52.006;6.020;2023-04-25T04:03:38;5.90;99.90
43524;DHT22;29120;52.006;6.020;2023-04-25T04:06:03;5.90;99.90
43524;DHT22;29120;52.006;6.020;2023-04-25T04:08:29;5.90;99.90
43524;DHT22;29120;52.006;6.020;2023-04-25T04:10:55;5.90;99.90
43524;DHT22;29120;52.006;6.020;2023-04-25T04:13:21;5.90;99.90
43524;DHT22;29120;52.006;6.020;2023-04-25T04:15:46;5.80;99.90
43524;DHT22;29120;52.006;6.020;2023-04-25T04:18:11;5.80;99.90
43524;DHT22;29120;52.006;6.020;2023-04-25T04:20:37;5.70;99.90
43524;DHT22;29120;52.006;6.020;2023-04-25T04:23:02;5.70;99.90
43524;DHT22;29120;52.006;6.020;2023-04-25T04:25:28;5.60;99.90
43524;DHT22;29120;52.006;6.020;2023-04-25T04:27:53;5.60;99.90
43524;DHT22;29120;52.006;6.020;2023-04-25T04:30:23;5.60;99.90
43524;DHT22;29120;52.006;6.020;2023-04-25T04:32:54;5.50;99.90
43524;DHT22;29120;52.006;6.020;2023-04-25T04:35:21;5.60;99.90
43524;DHT22;29120;52.006;6.020;2023-04-25T04:37:46;5.50;99.90
43524;DHT22;29120;52.006;6.020;2023-04-25T04:40:13;5.50;99.90
43524;DHT22;29120;52.006;6.020;2023-04-25T04:42:44;5.60;99.90
43524;DHT22;29120;52.006;6.020;2023-04-25T04:45:10;5.70;99.90
43524;DHT22;29120;52.006;6.020;2023-04-25T04:47:36;5.80;99.90
43524;DHT22;29120;52.006;6.020;2023-04-25T04:50:02;5.90;99.90
43524;DHT22;29120;52.006;6.020;2023-04-25T04:52:28;6.00;99.90
43524;DHT22;29120;52.006;6.020;2023-04-25T04:54:53;6.00;99.90
43524;DHT22;29120;52.006;6.020;2023-04-25T04:57:19;6.00;99.90
43524;DHT22;29120;52.006;6.020;2023-04-25T04:59:44;6.00;99.90
43524;DHT22;29120;52.006;6.020;2023-04-25T05:02:11;6.00;99.90
43524;DHT22;29120;52.006;6.020;2023-04-25T05:04:36;6.00;99.90
43524;DHT22;29120;52.006;6.020;2023-04-25T05:07:01;6.10;99.90
43524;DHT22;29120;52.006;6.020;2023-04-25T05:09:27;6.10;99.90
43524;DHT22;29120;52.006;6.020;2023-04-25T05:11:52;6.20;99.90
43524;DHT22;29120;52.006;6.020;2023-04-25T05:14:18;6.20;99.90
43524;DHT22;29120;52.006;6.020;2023-04-25T05:16:43;6.30;99.90
43524;DHT22;29120;52.006;6.020;2023-04-25T05:19:09;6.40;99.90
43524;DHT22;29120;52.006;6.020;2023-04-25T05:21:34;6.40;99.90
43524;DHT22;29120;52.006;6.020;2023-04-25T05:24:00;6.50;99.90
43524;DHT22;29120;52.006;6.020;2023-04-25T05:26:26;6.50;99.90
43524;DHT22;29120;52.006;6.020;2023-04-25T05:28:58;6.50;99.90
43524;DHT22;29120;52.006;6.020;2023-04-25T05:31:24;6.50;99.90
43524;DHT22;29120;52.006;6.020;2023-04-25T05:33:49;6.50;99.90
43524;DHT22;29120;52.006;6.020;2023-04-25T05:36:15;6.50;99.90
43524;DHT22;29120;52.006;6.020;2023-04-25T05:38:40;6.50;99.90
43524;DHT22;29120;52.006;6.020;2023-04-25T05:41:06;6.60;99.90
43524;DHT22;29120;52.006;6.020;2023-04-25T05:43:32;6.60;99.90
43524;DHT22;29120;52.006;6.020;2023-04-25T05:45:58;6.70;99.90
43524;DHT22;29120;52.006;6.020;2023-04-25T05:48:23;6.70;99.90
43524;DHT22;29120;52.006;6.020;2023-04-25T05:50:49;6.70;99.90
43524;DHT22;29120;52.006;6.020;2023-04-25T05:53:14;6.70;99.90
43524;DHT22;29120;52.006;6.020;2023-04-25T05:55:40;6.60;99.90
43524;DHT22;29120;52.006;6.020;2023-04-25T05:58:05;6.60;99.90
43524;DHT22;29120;52.006;6.020;2023-04-25T06:00:32;6.60;99.90
43524;DHT22;29120;52.006;6.020;2023-04-25T06:02:57;6.60;99.90
43524;DHT22;29120;52.006;6.020;2023-04-25T06:05:23;6.60;99.90
43524;DHT22;29120;52.006;6.020;2023-04-25T06:07:48;6.70;99.90
43524;DHT22;29120;52.006;6.020;2023-04-25T06:10:14;6.70;99.90
43524;DHT22;29120;52.006;6.020;2023-04-25T06:12:40;6.80;99.90
43524;DHT22;29120;52.006;6.020;2023-04-25T06:15:07;7.00;99.90
43524;DHT22;29120;52.006;6.020;2023-04-25T06:17:33;7.00;99.90
43524;DHT22;29120;52.006;6.020;2023-04-25T06:19:58;7.10;99.90
43524;DHT22;29120;52.006;6.020;2023-04-25T06:22:24;7.20;99.90
43524;DHT22;29120;52.006;6.020;2023-04-25T06:24:49;7.30;99.90
43524;DHT22;29120;52.006;6.020;2023-04-25T06:27:15;7.40;99.90
43524;DHT22;29120;52.006;6.020;2023-04-25T06:29:40;7.50;99.90
43524;DHT22;29120;52.006;6.020;2023-04-25T06:32:06;7.60;99.90
43524;DHT22;29120;52.006;6.020;2023-04-25T06:34:31;7.70;99.90
43524;DHT22;29120;52.006;6.020;2023-04-25T06:36:57;7.80;99.90
43524;DHT22;29120;52.006;6.020;2023-04-25T06:39:22;7.90;99.90
43524;DHT22;29120;52.006;6.020;2023-04-25T06:41:49;8.00;99.90
43524;DHT22;29120;52.006;6.020;2023-04-25T06:44:15;8.20;99.90
43524;DHT22;29120;52.006;6.020;2023-04-25T06:46:40;8.30;99.90
43524;DHT22;29120;52.006;6.020;2023-04-25T06:49:06;8.50;99.90
43524;DHT22;29120;52.006;6.020;2023-04-25T06:51:31;8.60;99.90
43524;DHT22;29120;52.006;6.020;2023-04-25T06:53:57;8.70;99.90
43524;DHT22;29120;52.006;6.020;2023-04-25T06:56:23;8.80;99.90
43524;DHT22;29120;52.006;6.020;2023-04-25T06:58:49;8.80;99.90
43524;DHT22;29120;52.006;6.020;2023-04-25T07:01:14;8.90;99.90
43524;DHT22;29120;52.006;6.020;2023-04-25T07:03:40;9.00;99.90
43524;DHT22;29120;52.006;6.020;2023-04-25T07:06:05;8.90;99.90
43524;DHT22;29120;52.006;6.020;2023-04-25T07:08:31;8.90;99.90
43524;DHT22;29120;52.006;6.020;2023-04-25T07:10:56;8.90;99.90
43524;DHT22;29120;52.006;6.020;2023-04-25T07:13:22;9.00;99.90
43524;DHT22;29120;52.006;6.020;2023-04-25T07:15:47;9.00;99.90
43524;DHT22;29120;52.006;6.020;2023-04-25T07:18:13;9.10;99.90
43524;DHT22;29120;52.006;6.020;2023-04-25T07:20:39;9.20;99.90
43524;DHT22;29120;52.006;6.020;2023-04-25T07:23:04;9.20;99.90
43524;DHT22;29120;52.006;6.020;2023-04-25T07:25:30;9.20;99.90
43524;DHT22;29120;52.006;6.020;2023-04-25T07:27:56;9.80;99.90
43524;DHT22;29120;52.006;6.020;2023-04-25T07:30:21;10.10;99.90
43524;DHT22;29120;52.006;6.020;2023-04-25T07:32:48;10.80;99.90
43524;DHT22;29120;52.006;6.020;2023-04-25T07:35:13;11.40;99.90
43524;DHT22;29120;52.006;6.020;2023-04-25T07:37:39;11.80;99.90
43524;DHT22;29120;52.006;6.020;2023-04-25T07:40:05;12.10;99.90
43524;DHT22;29120;52.006;6.020;2023-04-25T07:42:30;12.50;99.90
43524;DHT22;29120;52.006;6.020;2023-04-25T07:44:56;12.90;99.90
43524;DHT22;29120;52.006;6.020;2023-04-25T07:47:21;13.30;99.90
43524;DHT22;29120;52.006;6.020;2023-04-25T07:49:47;13.50;99.90
43524;DHT22;29120;52.006;6.020;2023-04-25T07:52:12;13.60;99.90
43524;DHT22;29120;52.006;6.020;2023-04-25T07:54:38;13.40;99.90
43524;DHT22;29120;52.006;6.020;2023-04-25T07:57:03;13.20;99.90
43524;DHT22;29120;52.006;6.020;2023-04-25T07:59:29;13.00;99.90
43524;DHT22;29120;52.006;6.020;2023-04-25T08:01:54;12.80;99.90
43524;DHT22;29120;52.006;6.020;2023-04-25T08:04:20;12.80;99.90
43524;DHT22;29120;52.006;6.020;2023-04-25T08:06:46;12.50;99.90
43524;DHT22;29120;52.006;6.020;2023-04-25T08:09:11;12.50;99.90
43524;DHT22;29120;52.006;6.020;2023-04-25T08:11:37;12.50;99.90
43524;DHT22;29120;52.006;6.020;2023-04-25T08:14:02;12.40;99.90
43524;DHT22;29120;52.006;6.020;2023-04-25T08:16:28;12.10;99.80
43524;DHT22;29120;52.006;6.020;2023-04-25T08:18:53;11.90;99.90
43524;DHT22;29120;52.006;6.020;2023-04-25T08:21:19;11.60;99.70
43524;DHT22;29120;52.006;6.020;2023-04-25T08:23:45;11.30;99.50
43524;DHT22;29120;52.006;6.020;2023-04-25T08:26:10;11.00;99.80
43524;DHT22;29120;52.006;6.020;2023-04-25T08:28:36;10.70;99.60
43524;DHT22;29120;52.006;6.020;2023-04-25T08:31:01;10.80;99.80
43524;DHT22;29120;52.006;6.020;2023-04-25T08:33:27;11.00;99.00
43524;DHT22;29120;52.006;6.020;2023-04-25T08:35:53;11.10;98.00
43524;DHT22;29120;52.006;6.020;2023-04-25T08:38:18;11.30;98.40
43524;DHT22;29120;52.006;6.020;2023-04-25T08:40:44;11.30;98.30
43524;DHT22;29120;52.006;6.020;2023-04-25T08:43:13;11.20;98.20
43524;DHT22;29120;52.006;6.020;2023-04-25T08:45:40;11.20;98.10
43524;DHT22;29120;52.006;6.020;2023-04-25T08:48:07;11.20;98.20
43524;DHT22;29120;52.006;6.020;2023-04-25T08:50:35;11.50;97.40
43524;DHT22;29120;52.006;6.020;2023-04-25T08:53:01;11.50;97.00
43524;DHT22;29120;52.006;6.020;2023-04-25T08:55:29;11.40;96.80
43524;DHT22;29120;52.006;6.020;2023-04-25T08:57:55;11.40;96.90
43524;DHT22;29120;52.006;6.020;2023-04-25T09:00:21;11.20;96.80
43524;DHT22;29120;52.006;6.020;2023-04-25T09:02:47;11.10;97.40
43524;DHT22;29120;52.006;6.020;2023-04-25T09:05:13;11.00;97.00
43524;DHT22;29120;52.006;6.020;2023-04-25T09:07:39;10.90;97.30
43524;DHT22;29120;52.006;6.020;2023-04-25T09:10:04;11.00;97.50
43524;DHT22;29120;52.006;6.020;2023-04-25T09:12:30;11.10;97.80
43524;DHT22;29120;52.006;6.020;2023-04-25T09:15:06;11.40;97.60
43524;DHT22;29120;52.006;6.020;2023-04-25T09:17:32;11.60;97.50
43524;DHT22;29120;52.006;6.020;2023-04-25T09:20:07;12.00;97.60
43524;DHT22;29120;52.006;6.020;2023-04-25T09:22:33;12.50;97.10
43524;DHT22;29120;52.006;6.020;2023-04-25T09:24:59;12.90;95.60
43524;DHT22;29120;52.006;6.020;2023-04-25T09:27:27;13.30;95.80
43524;DHT22;29120;52.006;6.020;2023-04-25T09:29:59;13.60;96.30
43524;DHT22;29120;52.006;6.020;2023-04-25T09:32:26;13.80;94.80
43524;DHT22;29120;52.006;6.020;2023-04-25T09:34:57;14.10;93.50
43524;DHT22;29120;52.006;6.020;2023-04-25T09:37:27;14.40;93.60
43524;DHT22;29120;52.006;6.020;2023-04-25T09:39:54;14.90;93.80
43524;DHT22;29120;52.006;6.020;2023-04-25T09:42:23;15.30;94.10
43524;DHT22;29120;52.006;6.020;2023-04-25T09:44:49;15.50;93.10
43524;DHT22;29120;52.006;6.020;2023-04-25T09:47:16;15.60;92.90
43524;DHT22;29120;52.006;6.020;2023-04-25T09:49:43;15.50;91.70
43524;DHT22;29120;52.006;6.020;2023-04-25T09:52:09;14.90;90.90
43524;DHT22;29120;52.006;6.020;2023-04-25T09:54:34;14.40;91.90
43524;DHT22;29120;52.006;6.020;2023-04-25T09:57:03;14.30;91.90
43524;DHT22;29120;52.006;6.020;2023-04-25T09:59:30;14.70;91.60
43524;DHT22;29120;52.006;6.020;2023-04-25T10:01:56;15.20;91.30
43524;DHT22;29120;52.006;6.020;2023-04-25T10:04:24;16.00;91.00
43524;DHT22;29120;52.006;6.020;2023-04-25T10:06:51;17.00;90.90
43524;DHT22;29120;52.006;6.020;2023-04-25T10:09:19;17.70;90.30
43524;DHT22;29120;52.006;6.020;2023-04-25T10:11:46;18.30;90.30
43524;DHT22;29120;52.006;6.020;2023-04-25T10:14:13;18.00;87.60
43524;DHT22;29120;52.006;6.020;2023-04-25T10:16:39;17.40;86.50
43524;DHT22;29120;52.006;6.020;2023-04-25T10:19:05;16.60;86.60
43524;DHT22;29120;52.006;6.020;2023-04-25T10:21:31;16.60;80.30
43524;DHT22;29120;52.006;6.020;2023-04-25T10:23:57;17.20;77.10
43524;DHT22;29120;52.006;6.020;2023-04-25T10:26:23;18.00;76.70
43524;DHT22;29120;52.006;6.020;2023-04-25T10:29:22;18.40;75.20
43524;DHT22;29120;52.006;6.020;2023-04-25T10:31:44;18.10;75.90
43524;DHT22;29120;52.006;6.020;2023-04-25T10:34:10;17.40;76.50
43524;DHT22;29120;52.006;6.020;2023-04-25T10:36:35;16.60;75.80
43524;DHT22;29120;52.006;6.020;2023-04-25T10:39:05;16.10;77.60
43524;DHT22;29120;52.006;6.020;2023-04-25T10:41:32;15.60;77.10
43524;DHT22;29120;52.006;6.020;2023-04-25T10:44:10;14.90;75.90
43524;DHT22;29120;52.006;6.020;2023-04-25T10:46:35;13.90;77.40
43524;DHT22;29120;52.006;6.020;2023-04-25T10:49:02;13.00;79.30
43524;DHT22;29120;52.006;6.020;2023-04-25T10:51:28;12.60;80.90
43524;DHT22;29120;52.006;6.020;2023-04-25T10:56:30;11.60;83.80
43524;DHT22;29120;52.006;6.020;2023-04-25T11:01:42;11.50;85.40
43524;DHT22;29120;52.006;6.020;2023-04-25T11:09:23;12.10;86.40
43524;DHT22;29120;52.006;6.020;2023-04-25T11:11:55;12.50;86.40
43524;DHT22;29120;52.006;6.020;2023-04-25T11:14:21;12.80;85.40
43524;DHT22;29120;52.006;6.020;2023-04-25T11:16:47;13.10;84.80
43524;DHT22;29120;52.006;6.020;2023-04-25T11:19:12;13.30;84.60
43524;DHT22;29120;52.006;6.020;2023-04-25T11:21:38;13.90;84.50
43524;DHT22;29120;52.006;6.020;2023-04-25T11:24:03;14.50;83.70
43524;DHT22;29120;52.006;6.020;2023-04-25T11:26:29;15.20;81.70
43524;DHT22;29120;52.006;6.020;2023-04-25T11:28:58;16.10;81.20
43524;DHT22;29120;52.006;6.020;2023-04-25T11:31:28;17.30;79.00
43524;DHT22;29120;52.006;6.020;2023-04-25T11:33:54;18.30;74.40
43524;DHT22;29120;52.006;6.020;2023-04-25T11:36:22;19.40;68.90
43524;DHT22;29120;52.006;6.020;2023-04-25T11:38:48;19.90;68.50
43524;DHT22;29120;52.006;6.020;2023-04-25T11:41:13;20.50;68.00
43524;DHT22;29120;52.006;6.020;2023-04-25T11:43:39;20.70;65.60
43524;DHT22;29120;52.006;6.020;2023-04-25T11:46:07;20.80;63.30
43524;DHT22;29120;52.006;6.020;2023-04-25T11:48:39;20.40;62.10
43524;DHT22;29120;52.006;6.020;2023-04-25T11:51:05;19.30;63.20
43524;DHT22;29120;52.006;6.020;2023-04-25T11:53:30;18.30;65.60
43524;DHT22;29120;52.006;6.020;2023-04-25T11:55:56;17.80;63.90
43524;DHT22;29120;52.006;6.020;2023-04-25T11:58:21;17.20;62.60
43524;DHT22;29120;52.006;6.020;2023-04-25T12:00:47;17.30;63.00
43524;DHT22;29120;52.006;6.020;2023-04-25T12:03:12;17.40;63.10
43524;DHT22;29120;52.006;6.020;2023-04-25T12:05:38;17.10;63.70
43524;DHT22;29120;52.006;6.020;2023-04-25T12:08:14;16.90;63.20
43524;DHT22;29120;52.006;6.020;2023-04-25T12:10:41;16.70;62.50
43524;DHT22;29120;52.006;6.020;2023-04-25T12:13:22;16.50;64.60
43524;DHT22;29120;52.006;6.020;2023-04-25T12:15:48;16.30;65.70
43524;DHT22;29120;52.006;6.020;2023-04-25T12:18:14;16.00;66.10
43524;DHT22;29120;52.006;6.020;2023-04-25T12:20:41;15.80;67.10
43524;DHT22;29120;52.006;6.020;2023-04-25T12:23:06;15.50;66.00
43524;DHT22;29120;52.006;6.020;2023-04-25T12:25:43;14.90;67.60
43524;DHT22;29120;52.006;6.020;2023-04-25T12:28:22;14.20;69.70
43524;DHT22;29120;52.006;6.020;2023-04-25T12:30:53;13.70;71.10
43524;DHT22;29120;52.006;6.020;2023-04-25T12:33:18;13.40;72.70
43524;DHT22;29120;52.006;6.020;2023-04-25T12:35:44;13.30;72.80
43524;DHT22;29120;52.006;6.020;2023-04-25T12:38:09;13.00;72.10
43524;DHT22;29120;52.006;6.020;2023-04-25T12:40:35;12.90;72.60
43524;DHT22;29120;52.006;6.020;2023-04-25T12:43:01;12.90;74.00
43524;DHT22;29120;52.006;6.020;2023-04-25T12:45:26;12.90;73.40
43524;DHT22;29120;52.006;6.020;2023-04-25T12:47:52;13.10;73.50
43524;DHT22;29120;52.006;6.020;2023-04-25T12:50:17;13.30;73.20
43524;DHT22;29120;52.006;6.020;2023-04-25T12:52:43;14.00;72.20
43524;DHT22;29120;52.006;6.020;2023-04-25T12:55:08;14.30;70.60
43524;DHT22;29120;52.006;6.020;2023-04-25T12:57:33;14.50;71.00
43524;DHT22;29120;52.006;6.020;2023-04-25T12:59:59;15.10;70.80
43524;DHT22;29120;52.006;6.020;2023-04-25T13:02:24;15.90;68.80
43524;DHT22;29120;52.006;6.020;2023-04-25T13:04:50;17.30;68.60
43524;DHT22;29120;52.006;6.020;2023-04-25T13:07:16;18.20;64.40
43524;DHT22;29120;52.006;6.020;2023-04-25T13:09:42;18.00;64.40
43524;DHT22;29120;52.006;6.020;2023-04-25T13:12:07;17.50;63.70
43524;DHT22;29120;52.006;6.020;2023-04-25T13:14:33;17.20;64.80
43524;DHT22;29120;52.006;6.020;2023-04-25T13:16:59;16.60;65.30
43524;DHT22;29120;52.006;6.020;2023-04-25T13:19:24;15.80;63.40
43524;DHT22;29120;52.006;6.020;2023-04-25T13:21:50;15.20;64.00
43524;DHT22;29120;52.006;6.020;2023-04-25T13:24:16;14.70;64.20
43524;DHT22;29120;52.006;6.020;2023-04-25T13:26:41;14.40;65.50
43524;DHT22;29120;52.006;6.020;2023-04-25T13:29:07;14.20;65.70
43524;DHT22;29120;52.006;6.020;2023-04-25T13:31:32;14.00;66.70
43524;DHT22;29120;52.006;6.020;2023-04-25T13:33:58;13.90;66.80
43524;DHT22;29120;52.006;6.020;2023-04-25T13:36:23;14.40;65.10
43524;DHT22;29120;52.006;6.020;2023-04-25T13:38:49;15.30;65.10
43524;DHT22;29120;52.006;6.020;2023-04-25T13:41:15;16.60;62.00
43524;DHT22;29120;52.006;6.020;2023-04-25T13:43:44;17.70;61.10
43524;DHT22;29120;52.006;6.020;2023-04-25T13:46:10;18.50;59.40
43524;DHT22;29120;52.006;6.020;2023-04-25T13:48:36;18.90;57.80
43524;DHT22;29120;52.006;6.020;2023-04-25T13:51:02;18.10;56.40
43524;DHT22;29120;52.006;6.020;2023-04-25T13:53:27;17.40;57.40
43524;DHT22;29120;52.006;6.020;2023-04-25T13:55:53;17.30;57.80
43524;DHT22;29120;52.006;6.020;2023-04-25T13:58:18;17.60;58.50
43524;DHT22;29120;52.006;6.020;2023-04-25T14:00:45;17.50;58.40
43524;DHT22;29120;52.006;6.020;2023-04-25T14:03:11;17.00;58.10
43524;DHT22;29120;52.006;6.020;2023-04-25T14:05:37;16.10;56.60
43524;DHT22;29120;52.006;6.020;2023-04-25T14:08:06;15.50;57.10
43524;DHT22;29120;52.006;6.020;2023-04-25T14:10:32;15.10;58.80
43524;DHT22;29120;52.006;6.020;2023-04-25T14:12:58;15.60;59.50
43524;DHT22;29120;52.006;6.020;2023-04-25T14:15:23;16.40;58.00
43524;DHT22;29120;52.006;6.020;2023-04-25T14:17:49;17.20;57.80
43524;DHT22;29120;52.006;6.020;2023-04-25T14:20:15;17.80;56.30
43524;DHT22;29120;52.006;6.020;2023-04-25T14:22:40;17.90;56.30
43524;DHT22;29120;52.006;6.020;2023-04-25T14:25:09;18.20;56.80
43524;DHT22;29120;52.006;6.020;2023-04-25T14:27:34;18.00;56.60
43524;DHT22;29120;52.006;6.020;2023-04-25T14:30:00;17.40;57.10
43524;DHT22;29120;52.006;6.020;2023-04-25T14:32:25;16.90;57.90
43524;DHT22;29120;52.006;6.020;2023-04-25T14:34:51;16.50;58.70
43524;DHT22;29120;52.006;6.020;2023-04-25T14:37:16;16.20;59.40
43524;DHT22;29120;52.006;6.020;2023-04-25T14:39:42;15.90;59.50
43524;DHT22;29120;52.006;6.020;2023-04-25T14:42:07;15.50;60.10
43524;DHT22;29120;52.006;6.020;2023-04-25T14:44:33;15.30;59.60
43524;DHT22;29120;52.006;6.020;2023-04-25T14:46:58;15.50;59.00
43524;DHT22;29120;52.006;6.020;2023-04-25T14:49:24;16.00;58.70
43524;DHT22;29120;52.006;6.020;2023-04-25T14:51:49;16.40;58.80
43524;DHT22;29120;52.006;6.020;2023-04-25T14:54:15;16.90;58.60
43524;DHT22;29120;52.006;6.020;2023-04-25T14:56:40;17.10;57.10
43524;DHT22;29120;52.006;6.020;2023-04-25T14:59:06;17.00;56.30
43524;DHT22;29120;52.006;6.020;2023-04-25T15:01:32;16.80;56.50
43524;DHT22;29120;52.006;6.020;2023-04-25T15:03:57;16.50;55.90
43524;DHT22;29120;52.006;6.020;2023-04-25T15:06:22;16.20;56.80
43524;DHT22;29120;52.006;6.020;2023-04-25T15:08:51;15.90;57.10
43524;DHT22;29120;52.006;6.020;2023-04-25T15:11:17;15.50;57.60
43524;DHT22;29120;52.006;6.020;2023-04-25T15:13:43;15.10;57.80
43524;DHT22;29120;52.006;6.020;2023-04-25T15:16:08;14.90;58.90
43524;DHT22;29120;52.006;6.020;2023-04-25T15:18:35;14.60;59.70
43524;DHT22;29120;52.006;6.020;2023-04-25T15:21:00;14.40;59.70
43524;DHT22;29120;52.006;6.020;2023-04-25T15:23:26;14.30;59.90
43524;DHT22;29120;52.006;6.020;2023-04-25T15:25:52;14.10;60.10
43524;DHT22;29120;52.006;6.020;2023-04-25T15:28:17;14.10;60.60
43524;DHT22;29120;52.006;6.020;2023-04-25T15:30:44;14.20;60.70
43524;DHT22;29120;52.006;6.020;2023-04-25T15:33:10;14.20;60.40
43524;DHT22;29120;52.006;6.020;2023-04-25T15:35:35;14.10;60.50
43524;DHT22;29120;52.006;6.020;2023-04-25T15:38:01;14.10;60.70
43524;DHT22;29120;52.006;6.020;2023-04-25T15:40:26;13.90;60.80
43524;DHT22;29120;52.006;6.020;2023-04-25T15:42:52;13.70;61.50